createdAt,value
2022-10-25T00:01:19.395Z,93.59
2022-10-25T00:03:47.171Z,92.72
2022-10-25T00:06:15.244Z,92.60
2022-10-25T00:08:42.911Z,92.61
2022-10-25T00:11:19.559Z,93.27
2022-10-25T00:13:49.489Z,93.15
2022-10-25T00:16:18.896Z,93.76
2022-10-25T00:18:51.472Z,93.93
2022-10-25T00:21:20.980Z,94.01
2022-10-25T00:23:49.386Z,93.76
2022-10-25T00:26:17.222Z,93.04
2022-10-25T00:28:44.811Z,93.54
2022-10-25T00:31:15.454Z,93.18
2022-10-25T00:33:44.518Z,93.42
2022-10-25T00:36:13.714Z,93.17
2022-10-25T00:38:41.908Z,93.37
2022-10-25T00:41:10.698Z,92.65
2022-10-25T00:43:40.814Z,92.44
2022-10-25T00:46:14.794Z,92.61
2022-10-25T00:48:46.570Z,92.44
2022-10-25T00:51:14.222Z,93.16
2022-10-25T00:53:43.518Z,93.85
2022-10-25T00:56:17.155Z,93.50
2022-10-25T00:58:48.175Z,93.80
2022-10-25T01:01:17.508Z,93.71
2022-10-25T01:03:46.757Z,93.43
2022-10-25T01:06:19.689Z,92.96
2022-10-25T01:08:49.247Z,93.45
2022-10-25T01:13:50.208Z,92.86
2022-10-25T01:16:27.631Z,92.32
2022-10-25T01:19:03.427Z,91.78
2022-10-25T01:24:59.027Z,92.28
2022-10-25T01:28:00.634Z,92.67
2022-10-25T01:30:48.846Z,92.48
2022-10-25T01:33:23.696Z,92.61
2022-10-25T01:35:58.568Z,92.42
2022-10-25T01:38:36.297Z,91.56
2022-10-25T01:41:13.744Z,92.25
2022-10-25T01:43:49.656Z,92.40
2022-10-25T01:46:26.531Z,92.41
2022-10-25T01:49:02.209Z,91.80
2022-10-25T01:51:29.858Z,91.38
2022-10-25T01:53:57.459Z,91.63
2022-10-25T01:56:28.958Z,91.74
2022-10-25T01:59:17.463Z,91.78
2022-10-25T02:01:59.482Z,92.58
2022-10-25T02:04:40.469Z,91.91
2022-10-25T02:07:12.468Z,92.70
2022-10-25T02:09:46.568Z,91.92
2022-10-25T02:12:19.427Z,92.16
2022-10-25T02:14:57.785Z,91.81
2022-10-25T02:17:28.486Z,91.66
2022-10-25T02:20:00.233Z,92.24
2022-10-25T02:22:32.878Z,91.77
2022-10-25T02:25:02.328Z,91.73
2022-10-25T02:27:32.331Z,91.97
2022-10-25T02:30:00.890Z,90.94
2022-10-25T02:32:31.476Z,91.96
2022-10-25T02:34:59.221Z,92.30
2022-10-25T02:37:26.819Z,91.34
2022-10-25T02:39:54.481Z,91.97
2022-10-25T02:42:22.038Z,91.52
2022-10-25T02:44:49.643Z,91.74
2022-10-25T02:47:17.249Z,91.04
2022-10-25T02:49:46.140Z,90.38
2022-10-25T02:52:13.735Z,91.11
2022-10-25T02:54:41.431Z,90.45
2022-10-25T02:57:09.020Z,91.33
2022-10-25T02:59:36.578Z,90.44
2022-10-25T03:02:04.178Z,91.23
2022-10-25T03:04:31.734Z,90.54
2022-10-25T03:07:00.627Z,90.64
2022-10-25T03:09:28.221Z,91.75
2022-10-25T03:11:55.777Z,91.33
2022-10-25T03:14:23.388Z,90.97
2022-10-25T03:16:50.976Z,91.36
2022-10-25T03:19:18.534Z,91.33
2022-10-25T03:21:46.112Z,91.89
2022-10-25T03:24:15.118Z,92.52
2022-10-25T03:26:42.697Z,91.41
2022-10-25T03:29:10.841Z,90.54
2022-10-25T03:31:38.460Z,90.59
2022-10-25T03:34:06.020Z,90.77
2022-10-25T03:36:33.641Z,90.94
2022-10-25T03:39:01.254Z,90.61
2022-10-25T03:41:30.129Z,90.99
2022-10-25T03:43:57.690Z,91.02
2022-10-25T03:46:25.256Z,90.91
2022-10-25T03:48:52.838Z,91.37
2022-10-25T03:51:20.420Z,91.08
2022-10-25T03:53:48.078Z,91.25
2022-10-25T03:56:15.686Z,90.86
2022-10-25T03:58:44.622Z,90.26
2022-10-25T04:01:12.436Z,90.37
2022-10-25T04:03:40.060Z,90.83
2022-10-25T04:06:08.083Z,91.72
2022-10-25T04:08:35.725Z,90.00
2022-10-25T04:11:03.307Z,90.28
2022-10-25T04:13:30.954Z,91.03
2022-10-25T04:15:59.926Z,91.76
2022-10-25T04:18:27.488Z,91.56
2022-10-25T04:20:55.049Z,91.86
2022-10-25T04:23:22.719Z,91.99
2022-10-25T04:25:50.906Z,92.37
2022-10-25T04:28:18.494Z,91.80
2022-10-25T04:30:46.102Z,92.14
2022-10-25T04:33:15.077Z,92.17
2022-10-25T04:35:42.665Z,91.33
2022-10-25T04:38:11.023Z,91.20
2022-10-25T04:40:38.666Z,90.41
2022-10-25T04:43:06.301Z,90.98
2022-10-25T04:45:33.923Z,91.28
2022-10-25T04:48:01.534Z,91.24
2022-10-25T04:50:30.553Z,91.38
2022-10-25T04:52:58.092Z,91.63
2022-10-25T04:55:25.671Z,91.46
2022-10-25T04:57:53.223Z,92.20
2022-10-25T05:00:20.806Z,91.59
2022-10-25T05:02:48.735Z,92.11
2022-10-25T05:05:16.738Z,92.87
2022-10-25T05:07:45.869Z,92.71
2022-10-25T05:10:13.530Z,92.80
2022-10-25T05:12:41.158Z,92.62
2022-10-25T05:15:09.823Z,92.66
2022-10-25T05:17:37.748Z,93.32
2022-10-25T05:20:06.438Z,93.16
2022-10-25T05:22:34.076Z,93.52
2022-10-25T05:25:02.992Z,93.60
2022-10-25T05:27:30.593Z,94.15
2022-10-25T05:29:58.192Z,94.27
2022-10-25T05:32:25.858Z,95.21
2022-10-25T05:34:53.413Z,95.30
2022-10-25T05:37:21.011Z,95.39
2022-10-25T05:39:48.569Z,95.65
2022-10-25T05:42:17.484Z,95.99
2022-10-25T05:44:45.140Z,96.16
2022-10-25T05:47:13.316Z,94.94
2022-10-25T05:49:42.273Z,95.27
2022-10-25T05:52:10.391Z,94.81
2022-10-25T05:54:37.965Z,95.16
2022-10-25T05:57:05.538Z,95.45
2022-10-25T05:59:34.431Z,94.38
2022-10-25T06:02:02.141Z,94.33
2022-10-25T06:04:30.056Z,95.18
2022-10-25T06:06:58.031Z,94.98
2022-10-25T06:09:25.559Z,95.02
2022-10-25T06:11:53.148Z,95.09
2022-10-25T06:14:20.704Z,94.00
2022-10-25T06:16:49.677Z,93.53
2022-10-25T06:19:17.286Z,93.77
2022-10-25T06:21:45.011Z,93.32
2022-10-25T06:24:12.852Z,92.95
2022-10-25T06:26:40.432Z,93.10
2022-10-25T06:29:08.351Z,93.60
2022-10-25T06:31:35.913Z,93.04
2022-10-25T06:34:04.942Z,93.36
2022-10-25T06:36:32.859Z,94.18
2022-10-25T06:39:05.740Z,94.48
2022-10-25T06:41:36.381Z,93.66
2022-10-25T06:44:06.425Z,93.49
2022-10-25T06:46:57.834Z,92.85
2022-10-25T06:49:25.757Z,94.14
2022-10-25T06:51:53.371Z,93.83
2022-10-25T06:54:21.015Z,93.05
2022-10-25T06:56:48.995Z,92.82
2022-10-25T06:59:17.096Z,92.91
2022-10-25T07:01:44.780Z,91.82
2022-10-25T07:04:12.418Z,91.43
2022-10-25T07:06:41.424Z,90.64
2022-10-25T07:09:10.208Z,90.80
2022-10-25T07:11:37.970Z,90.25
2022-10-25T07:14:05.810Z,90.43
2022-10-25T07:16:33.494Z,89.68
2022-10-25T07:19:01.798Z,89.60
2022-10-25T07:21:31.103Z,90.10
2022-10-25T07:24:00.167Z,91.06
2022-10-25T07:26:30.849Z,91.11
2022-10-25T07:29:01.200Z,92.05
2022-10-25T07:31:31.399Z,92.40
2022-10-25T07:34:00.953Z,92.77
2022-10-25T07:36:29.067Z,92.46
2022-10-25T07:38:57.001Z,92.66
2022-10-25T07:41:26.911Z,91.88
2022-10-25T07:43:55.333Z,90.33
2022-10-25T07:46:23.302Z,89.62
2022-10-25T07:48:52.466Z,89.04
2022-10-25T07:51:20.105Z,88.28
2022-10-25T07:53:47.847Z,87.46
2022-10-25T07:56:20.676Z,87.34
2022-10-25T07:58:52.784Z,87.05
2022-10-25T08:01:23.224Z,86.41
2022-10-25T08:03:51.245Z,85.38
2022-10-25T08:06:19.167Z,84.41
2022-10-25T08:08:47.347Z,83.94
2022-10-25T08:11:15.308Z,83.29
2022-10-25T08:13:42.917Z,82.72
2022-10-25T08:16:11.910Z,81.88
2022-10-25T08:18:39.473Z,82.13
2022-10-25T08:21:07.179Z,81.59
2022-10-25T08:23:34.845Z,81.26
2022-10-25T08:26:02.813Z,80.09
2022-10-25T08:28:31.654Z,78.45
2022-10-25T08:31:00.761Z,77.73
2022-10-25T08:33:30.332Z,76.97
2022-10-25T08:36:01.205Z,76.00
2022-10-25T08:38:28.798Z,74.54
2022-10-25T08:41:05.888Z,74.07
2022-10-25T08:43:49.983Z,73.60
2022-10-25T08:46:21.281Z,73.98
2022-10-25T08:48:56.380Z,74.21
2022-10-25T08:51:28.388Z,73.82
2022-10-25T08:53:59.781Z,74.23
2022-10-25T08:56:29.610Z,74.14
2022-10-25T08:59:00.776Z,72.51
2022-10-25T09:01:32.530Z,73.24
2022-10-25T09:04:01.754Z,73.04
2022-10-25T09:06:35.592Z,69.64
2022-10-25T09:09:16.103Z,64.69
2022-10-25T09:11:53.651Z,62.28
2022-10-25T09:14:33.272Z,61.40
2022-10-25T09:17:08.387Z,59.59
2022-10-25T09:19:44.280Z,57.24
2022-10-25T09:22:19.368Z,58.62
2022-10-25T09:24:56.898Z,61.21
2022-10-25T09:27:32.920Z,63.54
2022-10-25T09:30:07.260Z,65.10
2022-10-25T09:32:40.363Z,64.48
2022-10-25T09:35:17.697Z,59.14
2022-10-25T09:37:49.776Z,57.57
2022-10-25T09:40:21.755Z,56.54
2022-10-25T09:42:53.586Z,55.47
2022-10-25T09:45:25.737Z,54.38
2022-10-25T09:48:00.735Z,53.27
2022-10-25T09:50:33.135Z,53.39
2022-10-25T09:53:11.099Z,55.44
2022-10-25T09:55:47.434Z,58.38
2022-10-25T09:58:20.499Z,59.90
2022-10-25T10:00:48.591Z,61.98
2022-10-25T10:03:16.394Z,63.40
2022-10-25T10:05:51.644Z,64.74
2022-10-25T10:08:19.529Z,66.45
2022-10-25T10:10:49.494Z,67.57
2022-10-25T10:13:25.259Z,67.17
2022-10-25T10:15:57.411Z,68.54
2022-10-25T10:18:27.622Z,67.93
2022-10-25T10:21:19.835Z,68.24
2022-10-25T10:23:53.611Z,69.29
2022-10-25T10:26:29.321Z,69.45
2022-10-25T10:29:08.876Z,69.79
2022-10-25T10:31:38.847Z,70.55
2022-10-25T10:34:08.444Z,71.62
2022-10-25T10:36:37.546Z,71.02
2022-10-25T10:39:21.095Z,71.53
2022-10-25T10:42:00.812Z,71.56
2022-10-25T10:44:28.586Z,72.90
2022-10-25T10:46:56.732Z,72.75
2022-10-25T10:49:36.467Z,73.08
2022-10-25T10:52:06.532Z,73.44
2022-10-25T10:54:38.827Z,72.95
2022-10-25T10:57:08.176Z,72.64
2022-10-25T10:59:44.036Z,71.81
2022-10-25T11:02:29.497Z,72.32
2022-10-25T11:04:57.992Z,73.10
2022-10-25T11:07:31.625Z,72.77
2022-10-25T11:10:20.385Z,73.59
2022-10-25T11:13:06.273Z,73.57
2022-10-25T11:15:43.834Z,74.58
2022-10-25T11:18:13.968Z,74.85
2022-10-25T11:20:51.884Z,74.42
2022-10-25T11:23:29.795Z,74.66
2022-10-25T11:26:02.921Z,74.12
2022-10-25T11:28:45.334Z,73.31
2022-10-25T11:31:27.772Z,72.51
2022-10-25T11:34:09.820Z,71.09
2022-10-25T11:36:59.217Z,70.99
2022-10-25T11:39:48.186Z,71.61
2022-10-25T11:42:37.025Z,71.67
2022-10-25T11:45:22.751Z,70.41
2022-10-25T11:48:02.773Z,68.83
2022-10-25T11:50:40.008Z,67.81
2022-10-25T11:53:31.218Z,67.04
2022-10-25T11:56:05.919Z,67.79
2022-10-25T11:58:44.571Z,68.31
2022-10-25T12:01:28.490Z,68.11
2022-10-25T12:04:10.865Z,69.43
2022-10-25T12:06:46.685Z,69.77
2022-10-25T12:09:25.908Z,68.50
2022-10-25T12:12:00.612Z,67.48
2022-10-25T12:14:33.148Z,68.27
2022-10-25T12:17:02.836Z,67.23
2022-10-25T12:19:36.483Z,67.03
2022-10-25T12:22:07.619Z,66.91
2022-10-25T12:24:40.405Z,68.42
2022-10-25T12:27:11.709Z,68.25
2022-10-25T12:29:43.140Z,68.42
2022-10-25T12:32:16.035Z,68.82
2022-10-25T12:34:46.733Z,68.48
2022-10-25T12:37:22.476Z,68.15
2022-10-25T12:39:50.181Z,67.54
2022-10-25T12:42:23.276Z,67.72
2022-10-25T12:45:13.457Z,67.44
2022-10-25T12:47:54.872Z,67.63
2022-10-25T12:51:00.403Z,66.62
2022-10-25T12:53:59.755Z,67.10
2022-10-25T12:56:39.468Z,68.13
2022-10-25T12:59:17.629Z,68.18
2022-10-25T13:02:05.052Z,67.56
2022-10-25T13:04:55.192Z,66.55
2022-10-25T13:07:25.138Z,65.24
2022-10-25T13:09:53.463Z,65.59
2022-10-25T13:12:26.229Z,66.63
2022-10-25T13:14:57.138Z,67.00
2022-10-25T13:18:02.311Z,67.27
2022-10-25T13:20:47.715Z,66.31
2022-10-25T13:24:00.547Z,64.96
2022-10-25T13:26:31.941Z,64.68
2022-10-25T13:29:02.444Z,60.92
2022-10-25T13:31:47.304Z,60.22
2022-10-25T13:34:37.020Z,58.99
2022-10-25T13:37:44.608Z,59.71
2022-10-25T13:40:30.854Z,59.32
2022-10-25T13:43:01.993Z,59.21
2022-10-25T13:45:45.649Z,59.06
2022-10-25T13:48:29.725Z,59.25
2022-10-25T13:50:59.622Z,58.87
2022-10-25T13:53:35.986Z,59.56
2022-10-25T13:56:06.762Z,59.78
2022-10-25T13:58:51.458Z,59.37
2022-10-25T14:01:57.318Z,59.07
2022-10-25T14:04:37.195Z,59.84
2022-10-25T14:07:50.708Z,60.38
2022-10-25T14:10:25.114Z,60.32
2022-10-25T14:12:58.171Z,59.62
2022-10-25T14:15:42.319Z,59.57
2022-10-25T14:18:18.481Z,58.88
2022-10-25T14:20:50.142Z,58.94
2022-10-25T14:23:22.887Z,59.43
2022-10-25T14:25:53.763Z,60.37
2022-10-25T14:28:26.564Z,60.52
2022-10-25T14:30:56.436Z,61.10
2022-10-25T14:33:29.720Z,61.67
2022-10-25T14:36:07.860Z,61.64
2022-10-25T14:38:39.534Z,61.91
2022-10-25T14:41:13.378Z,62.40
2022-10-25T14:43:42.673Z,61.70
2022-10-25T14:46:17.855Z,62.88
2022-10-25T14:48:47.734Z,63.02
2022-10-25T14:51:21.736Z,63.39
2022-10-25T14:53:53.825Z,62.74
2022-10-25T14:56:24.980Z,62.25
2022-10-25T14:58:52.927Z,62.92
2022-10-25T15:01:22.734Z,63.33
2022-10-25T15:03:53.976Z,62.69
2022-10-25T15:06:26.202Z,63.91
2022-10-25T15:09:14.847Z,63.80
2022-10-25T15:12:15.913Z,64.18
2022-10-25T15:14:43.608Z,63.18
2022-10-25T15:17:27.102Z,63.82
2022-10-25T15:20:07.222Z,64.75
2022-10-25T15:22:44.150Z,66.22
2022-10-25T15:25:20.436Z,66.52
2022-10-25T15:27:48.858Z,66.89
2022-10-25T15:30:34.809Z,66.95
2022-10-25T15:33:02.720Z,66.77
2022-10-25T15:35:32.215Z,67.59
2022-10-25T15:38:01.172Z,68.08
2022-10-25T15:40:28.763Z,68.97
2022-10-25T15:42:56.321Z,68.85
2022-10-25T15:45:23.946Z,69.17
2022-10-25T15:47:53.415Z,69.28
2022-10-25T15:50:22.673Z,69.84
2022-10-25T15:52:50.473Z,69.87
2022-10-25T15:55:22.130Z,70.44
2022-10-25T15:57:50.834Z,70.87
2022-10-25T16:00:27.263Z,72.15
2022-10-25T16:02:56.525Z,72.83
2022-10-25T16:05:26.935Z,73.10
2022-10-25T16:07:54.957Z,73.02
2022-10-25T16:10:26.008Z,72.76
2022-10-25T16:12:59.558Z,73.11
2022-10-25T16:15:27.621Z,73.06
2022-10-25T16:17:55.139Z,72.90
2022-10-25T16:20:25.229Z,74.02
2022-10-25T16:22:53.145Z,73.89
2022-10-25T16:25:21.872Z,74.24
2022-10-25T16:27:50.871Z,74.56
2022-10-25T16:30:21.080Z,74.93
2022-10-25T16:32:49.265Z,75.70
2022-10-25T16:35:24.026Z,75.80
2022-10-25T16:37:51.893Z,76.52
2022-10-25T16:40:22.530Z,75.80
2022-10-25T16:42:51.647Z,75.53
2022-10-25T16:45:23.607Z,74.66
2022-10-25T16:47:51.247Z,74.68
2022-10-25T16:50:23.046Z,74.68
2022-10-25T16:52:50.903Z,74.47
2022-10-25T16:55:19.443Z,74.37
2022-10-25T17:00:18.506Z,74.75
2022-10-25T17:02:46.405Z,74.97
2022-10-25T17:05:19.526Z,75.11
2022-10-25T17:07:47.206Z,75.31
2022-10-25T17:10:15.410Z,75.55
2022-10-25T17:12:44.539Z,75.65
2022-10-25T17:15:13.262Z,75.78
2022-10-25T17:17:42.542Z,76.60
2022-10-25T17:20:11.632Z,77.31
2022-10-25T17:22:39.802Z,77.80
2022-10-25T17:25:09.464Z,77.84
2022-10-25T17:27:41.695Z,77.93
2022-10-25T17:30:11.021Z,78.42
2022-10-25T17:32:39.332Z,78.07
2022-10-25T17:35:08.913Z,78.53
2022-10-25T17:37:39.170Z,78.10
2022-10-25T17:40:09.946Z,78.01
2022-10-25T17:42:37.670Z,78.54
2022-10-25T17:45:06.390Z,78.74
2022-10-25T17:47:34.083Z,78.95
2022-10-25T17:50:01.756Z,78.66
2022-10-25T17:52:30.948Z,78.82
2022-10-25T17:54:58.636Z,79.16
2022-10-25T17:57:26.387Z,79.60
2022-10-25T17:59:54.150Z,79.06
2022-10-25T18:02:21.989Z,79.04
2022-10-25T18:05:02.232Z,79.18
2022-10-25T18:07:39.075Z,79.47
2022-10-25T18:10:07.330Z,78.89
2022-10-25T18:12:34.993Z,79.35
2022-10-25T18:15:02.809Z,79.66
2022-10-25T18:17:30.461Z,79.58
2022-10-25T18:19:58.160Z,79.97
2022-10-25T18:22:26.244Z,80.48
2022-10-25T18:24:55.175Z,80.44
2022-10-25T18:27:22.928Z,80.94
2022-10-25T18:29:50.549Z,80.18
2022-10-25T18:32:18.152Z,80.96
2022-10-25T18:34:45.846Z,81.46
2022-10-25T18:37:13.512Z,82.00
2022-10-25T18:39:41.101Z,82.03
2022-10-25T18:42:10.013Z,81.64
2022-10-25T18:44:39.982Z,81.19
2022-10-25T18:47:07.746Z,80.94
2022-10-25T18:49:35.996Z,80.98
2022-10-25T18:52:03.725Z,80.30
2022-10-25T18:54:31.394Z,80.34
2022-10-25T18:56:59.021Z,80.65
2022-10-25T18:59:28.022Z,81.72
2022-10-25T19:01:55.887Z,82.16
2022-10-25T19:04:23.631Z,82.76
2022-10-25T19:06:51.202Z,83.18
2022-10-25T19:09:18.764Z,83.15
2022-10-25T19:11:46.454Z,83.31
2022-10-25T19:14:14.225Z,83.48
2022-10-25T19:16:43.663Z,83.67
2022-10-25T19:19:11.913Z,83.66
2022-10-25T19:21:39.597Z,84.25
2022-10-25T19:24:11.735Z,84.04
2022-10-25T19:26:39.469Z,84.68
2022-10-25T19:29:07.337Z,83.71
2022-10-25T19:31:34.978Z,83.65
2022-10-25T19:34:04.093Z,83.58
2022-10-25T19:36:32.078Z,83.32
2022-10-25T19:39:00.169Z,83.72
2022-10-25T19:41:29.203Z,83.80
2022-10-25T19:43:58.693Z,83.62
2022-10-25T19:46:26.557Z,83.40
2022-10-25T19:48:56.289Z,83.89
2022-10-25T19:51:25.404Z,83.13
2022-10-25T19:53:53.222Z,83.88
2022-10-25T19:56:22.777Z,83.40
2022-10-25T19:58:51.419Z,83.76
2022-10-25T20:01:20.936Z,83.88
2022-10-25T20:03:50.791Z,84.05
2022-10-25T20:06:24.280Z,84.26
2022-10-25T20:08:55.193Z,84.40
2022-10-25T20:11:24.415Z,84.60
2022-10-25T20:13:53.730Z,84.68
2022-10-25T20:16:21.444Z,84.77
2022-10-25T20:18:49.179Z,84.87
2022-10-25T20:21:19.878Z,84.36
2022-10-25T20:23:50.689Z,84.71
2022-10-25T20:26:21.636Z,84.77
2022-10-25T20:28:49.860Z,84.10
2022-10-25T20:31:19.380Z,83.84
2022-10-25T20:33:47.223Z,83.07
2022-10-25T20:36:15.284Z,83.43
2022-10-25T20:38:43.119Z,83.45
2022-10-25T20:41:12.628Z,84.01
2022-10-25T20:43:43.084Z,84.25
2022-10-25T20:46:10.856Z,83.77
2022-10-25T20:48:38.529Z,83.96
2022-10-25T20:51:07.857Z,83.69
2022-10-25T20:53:36.775Z,83.87
2022-10-25T20:56:04.674Z,84.17
2022-10-25T20:58:32.588Z,83.13
2022-10-25T21:01:01.936Z,83.16
2022-10-25T21:03:31.499Z,83.36
2022-10-25T21:06:00.820Z,83.89
2022-10-25T21:08:28.466Z,83.64
2022-10-25T21:10:57.782Z,83.71
2022-10-25T21:13:26.479Z,84.17
2022-10-25T21:15:54.413Z,83.80
2022-10-25T21:18:27.808Z,83.78
2022-10-25T21:20:56.388Z,84.49
2022-10-25T21:23:24.024Z,84.77
2022-10-25T21:25:58.323Z,84.98
2022-10-25T21:28:26.308Z,85.57
2022-10-25T21:30:54.164Z,85.49
2022-10-25T21:33:23.290Z,85.63
2022-10-25T21:35:50.875Z,85.46
2022-10-25T21:38:18.528Z,85.41
2022-10-25T21:40:46.121Z,85.54
2022-10-25T21:43:13.703Z,85.72
2022-10-25T21:45:42.358Z,86.32
2022-10-25T21:48:09.938Z,86.39
2022-10-25T21:50:38.805Z,86.79
2022-10-25T21:53:06.331Z,85.88
2022-10-25T21:55:33.896Z,86.00
2022-10-25T21:58:01.455Z,85.89
2022-10-25T22:00:29.000Z,85.90
2022-10-25T22:02:56.970Z,85.92
2022-10-25T22:05:24.645Z,85.80
2022-10-25T22:07:53.575Z,85.97
2022-10-25T22:10:21.174Z,85.71
2022-10-25T22:12:49.059Z,86.21
2022-10-25T22:15:17.325Z,85.82
2022-10-25T22:17:44.931Z,86.50
2022-10-25T22:20:12.746Z,86.31
2022-10-25T22:22:40.293Z,85.91
2022-10-25T22:25:09.772Z,86.12
2022-10-25T22:27:37.367Z,86.00
2022-10-25T22:30:05.442Z,86.24
2022-10-25T22:32:33.065Z,86.03
2022-10-25T22:35:00.641Z,86.44
2022-10-25T22:37:28.281Z,86.08
2022-10-25T22:39:55.875Z,85.95
2022-10-25T22:42:25.766Z,85.89
2022-10-25T22:44:53.328Z,85.02
2022-10-25T22:47:20.866Z,85.27
2022-10-25T22:49:48.560Z,85.80
2022-10-25T22:52:16.114Z,86.23
2022-10-25T22:54:43.780Z,86.46
2022-10-25T22:57:11.800Z,86.11
2022-10-25T22:59:40.696Z,85.87
2022-10-25T23:02:08.261Z,85.29
2022-10-25T23:04:35.897Z,85.53
2022-10-25T23:07:03.524Z,85.31
2022-10-25T23:09:31.146Z,85.65
2022-10-25T23:11:58.704Z,85.63
2022-10-25T23:14:26.313Z,85.95
2022-10-25T23:16:55.219Z,85.92
2022-10-25T23:19:22.793Z,85.62
2022-10-25T23:21:50.349Z,85.09
2022-10-25T23:24:18.066Z,85.03
2022-10-25T23:26:45.640Z,85.11
2022-10-25T23:29:13.726Z,85.55
2022-10-25T23:31:41.555Z,85.14
2022-10-25T23:34:11.381Z,84.88
2022-10-25T23:36:39.054Z,84.16
2022-10-25T23:39:08.372Z,84.60
2022-10-25T23:41:36.301Z,85.07
2022-10-25T23:44:04.088Z,84.52
2022-10-25T23:46:31.666Z,84.41
2022-10-25T23:48:59.491Z,85.29
2022-10-25T23:51:28.425Z,85.08
2022-10-25T23:53:56.062Z,85.52
2022-10-25T23:56:23.627Z,85.48
2022-10-25T23:58:53.387Z,86.26
